Time;durP1;ratioP1;P1;durP2;ratioP2;P2;SDS_P1;SDS_P2;PMS_P1;PMS_P2;Temp;Humidity;BMP_temperature;BMP_pressure;BME280_temperature;BME280_humidity;BME280_pressure;Samples;Min_cycle;Max_cycle;Signal;HPM_P1;HPM_P2
2023/03/08 00:04:30;;;;;;;6.20;5.50;;;10.40;99.90;;;;;;10350073;28;20262;-84
2023/03/08 00:09:33;;;;;;;5.43;4.17;;;10.70;99.90;;;;;;10367219;28;20311;-84
2023/03/08 00:14:36;;;;;;;7.60;5.97;;;10.90;99.90;;;;;;10367502;28;20623;-84
2023/03/08 00:19:38;;;;;;;7.73;5.77;;;10.40;99.90;;;;;;10350139;28;20292;-84
2023/03/08 00:24:41;;;;;;;8.07;6.10;;;10.70;99.90;;;;;;10366935;28;20270;-84
2023/03/08 00:29:43;;;;;;;6.97;5.40;;;10.40;99.90;;;;;;10366703;28;20256;-84
2023/03/08 00:34:46;;;;;;;6.60;4.97;;;10.50;99.90;;;;;;10366752;28;20255;-84
2023/03/08 00:39:52;;;;;;;8.57;6.77;;;10.90;99.90;;;;;;10349154;28;20219;-84
2023/03/08 00:44:55;;;;;;;7.73;5.90;;;10.90;99.90;;;;;;10366697;28;20262;-84
2023/03/08 00:49:58;;;;;;;7.77;5.30;;;10.10;99.90;;;;;;10366756;28;20243;-84
2023/03/08 00:55:00;;;;;;;7.73;5.57;;;10.80;99.90;;;;;;10349496;28;20242;-84
2023/03/08 01:00:07;;;;;;;7.73;5.10;;;10.70;99.90;;;;;;10349083;28;20717;-84
2023/03/08 01:05:09;;;;;;;5.97;5.10;;;10.40;99.90;;;;;;10356650;28;20270;-84
2023/03/08 01:10:12;;;;;;;7.07;5.70;;;10.40;99.90;;;;;;10374337;28;20288;-84
2023/03/08 01:15:15;;;;;;;7.73;5.43;;;10.10;99.90;;;;;;10374227;28;20287;-84
2023/03/08 01:20:18;;;;;;;10.53;5.37;;;11.10;99.90;;;;;;10356017;28;20648;-84
2023/03/08 01:25:20;;;;;;;6.10;5.50;;;10.90;99.90;;;;;;10355806;28;20684;-84
2023/03/08 01:30:24;;;;;;;6.70;5.60;;;10.30;99.90;;;;;;10372832;28;20791;-83
2023/03/08 01:35:27;;;;;;;8.37;5.97;;;10.70;99.90;;;;;;10356028;28;20275;-83
2023/03/08 01:40:29;;;;;;;7.37;5.47;;;10.90;99.90;;;;;;10355845;28;20267;-84
2023/03/08 01:46:10;;;;;;;5.73;4.57;;;10.70;99.90;;;;;;10354977;28;20263;-84
2023/03/08 01:51:18;;;;;;;6.90;5.17;;;9.70;99.90;;;;;;10355346;28;20665;-84
2023/03/08 01:56:22;;;;;;;6.97;5.17;;;10.20;99.90;;;;;;10372739;28;20290;-84
2023/03/08 02:01:25;;;;;;;6.17;5.30;;;10.70;99.90;;;;;;10355771;28;20275;-84
2023/03/08 02:06:31;;;;;;;6.30;5.33;;;10.60;99.90;;;;;;10356430;28;20261;-84
2023/03/08 02:11:37;;;;;;;6.97;5.37;;;9.90;99.90;;;;;;10356153;28;20200;-83
2023/03/08 02:16:40;;;;;;;5.60;4.03;;;10.30;99.90;;;;;;10354936;28;20593;-84
2023/03/08 02:21:43;;;;;;;6.57;5.03;;;11.00;99.90;;;;;;10355623;28;20222;-84
2023/03/08 02:26:48;;;;;;;5.27;4.30;;;11.00;99.90;;;;;;10354807;28;20236;-84
2023/03/08 02:31:51;;;;;;;4.30;2.57;;;10.40;99.90;;;;;;10407411;28;20269;-84
2023/03/08 02:36:53;;;;;;;8.37;4.50;;;10.50;99.90;;;;;;10394879;28;20277;-84
2023/03/08 02:41:56;;;;;;;3.07;2.17;;;10.20;99.90;;;;;;10396048;28;20617;-84
2023/03/08 02:46:58;;;;;;;6.53;4.47;;;10.80;99.90;;;;;;10394878;28;20608;-84
2023/03/08 02:52:01;;;;;;;5.53;4.93;;;10.80;99.90;;;;;;10382648;28;20239;-84
2023/03/08 02:57:04;;;;;;;6.50;4.10;;;10.20;99.90;;;;;;10351759;28;20238;-84
2023/03/08 03:02:09;;;;;;;6.77;5.00;;;10.00;99.90;;;;;;10351500;28;20273;-84
2023/03/08 03:07:11;;;;;;;5.33;3.40;;;9.40;99.90;;;;;;10351530;28;20724;-84
2023/03/08 03:12:14;;;;;;;6.87;4.53;;;10.30;99.90;;;;;;10350944;28;20279;-84
2023/03/08 03:17:17;;;;;;;7.33;4.97;;;10.40;99.90;;;;;;10350842;28;20353;-84
2023/03/08 03:22:20;;;;;;;6.37;5.00;;;9.90;99.90;;;;;;10350866;28;20266;-84
2023/03/08 03:27:23;;;;;;;4.90;3.80;;;10.20;99.90;;;;;;10349963;28;20269;-84
2023/03/08 03:32:28;;;;;;;5.70;4.87;;;10.30;99.90;;;;;;10350504;28;20259;-84
2023/03/08 03:37:35;;;;;;;1.30;1.20;;;9.80;99.90;;;;;;10350651;28;20250;-84
2023/03/08 03:42:38;;;;;;;5.00;4.07;;;10.20;99.90;;;;;;10350284;28;20247;-84
2023/03/08 03:47:46;;;;;;;5.83;4.57;;;10.10;99.90;;;;;;10334533;28;20659;-84
2023/03/08 03:52:50;;;;;;;7.13;3.90;;;10.20;99.90;;;;;;10349798;28;20245;-84
2023/03/08 03:57:53;;;;;;;6.00;4.13;;;10.70;99.90;;;;;;10367267;28;20284;-84
2023/03/08 04:02:56;;;;;;;5.50;3.93;;;10.60;99.90;;;;;;10349365;28;20610;-84
2023/03/08 04:08:00;;;;;;;5.20;4.43;;;10.00;99.90;;;;;;10349646;28;20327;-84
2023/03/08 04:13:10;;;;;;;5.60;4.40;;;10.50;99.90;;;;;;10348934;28;20911;-84
2023/03/08 04:18:14;;;;;;;6.03;3.77;;;10.60;99.90;;;;;;10348917;28;20325;-84
2023/03/08 04:23:19;;;;;;;7.10;4.40;;;9.90;99.90;;;;;;10333393;28;20219;-84
2023/03/08 04:28:23;;;;;;;5.07;4.33;;;9.80;99.90;;;;;;10348722;28;20271;-84
2023/03/08 04:33:26;;;;;;;4.90;4.23;;;9.80;99.90;;;;;;10348963;28;20248;-84
2023/03/08 04:38:32;;;;;;;5.13;4.10;;;9.50;99.90;;;;;;10365961;28;20246;-84
2023/03/08 04:43:37;;;;;;;6.53;4.40;;;9.90;99.90;;;;;;10348256;28;20301;-84
2023/03/08 04:48:40;;;;;;;5.80;4.43;;;9.50;99.90;;;;;;10365948;28;20309;-84
2023/03/08 04:53:45;;;;;;;5.17;4.20;;;9.60;99.90;;;;;;10348217;28;20248;-84
2023/03/08 04:58:48;;;;;;;5.57;4.23;;;9.60;99.90;;;;;;10365746;28;20244;-84
2023/03/08 05:03:54;;;;;;;6.33;4.37;;;10.40;99.90;;;;;;10347593;28;20310;-84
2023/03/08 05:09:03;;;;;;;4.00;3.57;;;10.30;99.90;;;;;;10347644;28;20683;-84
2023/03/08 05:14:08;;;;;;;6.17;4.70;;;10.50;99.90;;;;;;10347788;28;20298;-84
2023/03/08 05:19:12;;;;;;;4.37;3.97;;;10.50;99.90;;;;;;10348108;28;20276;-84
2023/03/08 05:24:21;;;;;;;6.93;3.03;;;10.60;99.90;;;;;;10347089;28;20339;-84
2023/03/08 05:29:24;;;;;;;5.17;4.63;;;10.40;99.90;;;;;;10365279;28;20287;-83
2023/03/08 05:34:28;;;;;;;8.07;4.20;;;10.20;99.90;;;;;;10364545;28;20244;-84
2023/03/08 05:39:32;;;;;;;5.13;4.00;;;10.30;99.90;;;;;;10347341;28;20247;-84
2023/03/08 05:44:40;;;;;;;2.77;2.07;;;9.40;99.90;;;;;;10347195;28;20283;-84
2023/03/08 05:49:45;;;;;;;6.47;3.90;;;9.60;99.90;;;;;;10350429;28;21037;-84
2023/03/08 05:54:50;;;;;;;4.13;2.67;;;9.80;99.90;;;;;;10354244;28;20245;-84
2023/03/08 05:59:54;;;;;;;3.57;2.00;;;10.40;99.90;;;;;;10354083;28;20250;-84
2023/03/08 06:04:57;;;;;;;5.57;4.60;;;11.10;99.90;;;;;;10371316;28;20794;-84
2023/03/08 06:10:01;;;;;;;4.93;4.00;;;10.40;99.90;;;;;;10353754;28;20210;-83
2023/03/08 06:15:04;;;;;;;7.13;3.57;;;10.90;99.90;;;;;;10354033;28;20305;-83
2023/03/08 06:20:10;;;;;;;4.97;2.90;;;10.90;99.90;;;;;;10353354;28;20725;-84
2023/03/08 06:25:18;;;;;;;7.00;4.30;;;11.10;99.90;;;;;;10353752;28;20712;-83
2023/03/08 06:30:23;;;;;;;5.00;3.97;;;10.80;99.90;;;;;;10352849;28;20259;-83
2023/03/08 06:35:27;;;;;;;3.80;2.53;;;10.50;99.90;;;;;;10352683;28;20241;-84
2023/03/08 06:40:34;;;;;;;6.10;3.43;;;10.70;99.90;;;;;;10352959;28;20332;-83
2023/03/08 06:45:38;;;;;;;5.17;4.20;;;10.90;99.90;;;;;;10352750;28;20273;-83
2023/03/08 06:50:41;;;;;;;4.90;3.57;;;10.30;99.90;;;;;;10336887;28;20255;-84
2023/03/08 06:55:44;;;;;;;6.00;3.77;;;10.30;99.90;;;;;;10351625;28;20244;-83
2023/03/08 07:00:47;;;;;;;4.07;2.90;;;10.00;99.90;;;;;;10366678;28;20243;-83
2023/03/08 07:05:49;;;;;;;4.53;2.87;;;10.00;99.90;;;;;;10368641;28;20298;-83
2023/03/08 07:10:52;;;;;;;7.50;4.87;;;11.00;94.00;;;;;;10369601;28;20288;-83
2023/03/08 07:15:56;;;;;;;5.43;3.20;;;10.60;83.80;;;;;;10368312;28;20244;-84
2023/03/08 07:20:58;;;;;;;7.17;4.30;;;10.90;93.90;;;;;;10368377;28;20245;-84
2023/03/08 07:26:08;;;;;;;6.40;3.50;;;10.30;91.30;;;;;;10368457;28;20280;-83
2023/03/08 07:31:11;;;;;;;4.17;3.00;;;9.90;93.20;;;;;;10368130;28;20994;-83
2023/03/08 07:36:14;;;;;;;5.30;3.13;;;10.80;91.50;;;;;;10368016;28;20298;-83
2023/03/08 07:41:17;;;;;;;5.07;3.43;;;10.50;99.60;;;;;;10367933;28;20606;-83
2023/03/08 07:46:19;;;;;;;4.60;3.03;;;10.70;98.70;;;;;;10350168;28;20796;-83
2023/03/08 07:51:22;;;;;;;1.93;1.57;;;10.20;98.30;;;;;;10367762;28;20234;-83
2023/03/08 07:56:25;;;;;;;2.60;1.73;;;11.30;99.90;;;;;;10349650;28;20275;-83
2023/03/08 08:01:28;;;;;;;5.77;3.17;;;11.90;99.20;;;;;;10367372;28;20690;-83
2023/03/08 08:06:30;;;;;;;5.73;2.27;;;11.40;99.10;;;;;;10367175;28;20265;-83
2023/03/08 08:11:33;;;;;;;2.30;1.60;;;11.50;99.50;;;;;;10348431;28;20235;-83
2023/03/08 08:16:36;;;;;;;4.93;3.40;;;12.10;99.90;;;;;;10366530;28;20243;-83
2023/03/08 08:21:38;;;;;;;4.07;2.60;;;11.50;93.60;;;;;;10367013;28;20767;-83
2023/03/08 08:26:41;;;;;;;5.70;2.83;;;11.30;99.90;;;;;;10366511;28;20257;-83
2023/03/08 08:31:43;;;;;;;4.40;2.60;;;10.60;97.30;;;;;;10349159;28;20772;-83
2023/03/08 08:36:46;;;;;;;7.73;4.03;;;10.80;99.90;;;;;;10366713;28;20236;-83
2023/03/08 08:41:49;;;;;;;2.73;2.20;;;11.40;95.10;;;;;;10365744;28;20232;-83
2023/03/08 08:46:51;;;;;;;2.73;2.53;;;11.30;99.90;;;;;;10348651;28;20262;-83
2023/03/08 08:51:54;;;;;;;2.13;1.60;;;11.20;99.00;;;;;;10348967;28;20243;-83
2023/03/08 08:56:57;;;;;;;9.37;3.53;;;11.60;99.90;;;;;;10348758;28;20244;-83
2023/03/08 09:02:00;;;;;;;4.20;3.33;;;11.40;91.00;;;;;;10365221;28;20235;-83
2023/03/08 09:07:03;;;;;;;4.13;3.70;;;11.60;91.90;;;;;;10348665;28;20287;-83
2023/03/08 09:12:06;;;;;;;4.53;2.90;;;10.90;95.00;;;;;;10348388;28;20240;-83
2023/03/08 09:17:08;;;;;;;5.37;2.50;;;11.90;99.60;;;;;;10365905;28;20306;-84
2023/03/08 09:22:11;;;;;;;2.17;1.97;;;11.60;99.90;;;;;;10364795;28;20240;-83
2023/03/08 09:27:14;;;;;;;2.93;1.77;;;11.90;99.90;;;;;;10372525;28;20324;-83
2023/03/08 09:32:16;;;;;;;4.60;2.30;;;12.20;98.90;;;;;;10372992;28;20242;-83
2023/03/08 09:37:19;;;;;;;3.63;3.20;;;11.00;99.80;;;;;;10373209;28;20296;-84
2023/03/08 09:42:26;;;;;;;3.57;1.87;;;10.90;96.30;;;;;;10354678;28;20622;-83
2023/03/08 09:47:45;;;;;;;3.93;3.53;;;11.30;99.90;;;;;;10355203;28;20697;-83
2023/03/08 09:52:53;;;;;;;4.53;3.87;;;11.30;99.90;;;;;;10315039;28;21036;-84
2023/03/08 09:58:12;;;;;;;9.47;5.30;;;10.60;99.90;;;;;;10332401;28;20268;-84
2023/03/08 10:03:32;;;;;;;5.87;4.23;;;10.80;91.30;;;;;;10339625;28;20299;-84
2023/03/08 10:08:46;;;;;;;8.53;4.10;;;10.80;95.00;;;;;;10372262;28;20657;-84
2023/03/08 10:13:55;;;;;;;7.57;4.20;;;10.90;95.70;;;;;;10371821;28;20300;-84
2023/03/08 10:19:05;;;;;;;5.97;3.07;;;10.60;97.80;;;;;;10371593;28;20249;-83
2023/03/08 10:24:25;;;;;;;2.80;2.57;;;11.00;99.80;;;;;;10370449;28;20205;-84
2023/03/08 10:29:28;;;;;;;1.20;1.00;;;11.20;98.50;;;;;;10369324;28;20259;-83
2023/03/08 10:34:33;;;;;;;6.17;4.83;;;11.20;99.90;;;;;;10369164;28;20795;-84
2023/03/08 10:39:46;;;;;;;6.07;4.40;;;11.20;81.70;;;;;;10369654;28;20291;-84
2023/03/08 10:45:12;;;;;;;1.20;0.90;;;10.50;96.20;;;;;;10370042;28;20255;-83
2023/03/08 10:50:18;;;;;;;4.17;3.40;;;11.40;99.90;;;;;;10368847;28;20321;-83
2023/03/08 10:55:28;;;;;;;3.00;2.10;;;11.60;93.60;;;;;;10369847;28;20236;-84
2023/03/08 11:00:41;;;;;;;6.70;4.70;;;12.20;97.30;;;;;;10352449;28;20940;-84
2023/03/08 11:05:57;;;;;;;4.57;3.13;;;10.90;93.70;;;;;;10368962;28;20317;-84
2023/03/08 11:11:12;;;;;;;10.10;7.13;;;11.10;83.90;;;;;;10368497;28;20655;-84
2023/03/08 11:16:33;;;;;;;5.00;3.43;;;7.30;76.10;;;;;;10349444;28;20243;-84
2023/03/08 11:21:47;;;;;;;5.50;3.80;;;8.90;99.90;;;;;;10369433;28;20686;-84
2023/03/08 11:27:17;;;;;;;2.67;2.20;;;9.40;99.90;;;;;;10368036;28;20263;-84
2023/03/08 11:32:35;;;;;;;6.53;4.20;;;8.90;99.90;;;;;;10368735;28;20625;-84
2023/03/08 11:37:45;;;;;;;4.50;2.33;;;9.60;91.30;;;;;;10368391;28;20268;-84
2023/03/08 11:43:07;;;;;;;4.07;2.70;;;10.70;99.90;;;;;;10364587;28;20234;-84
2023/03/08 11:48:20;;;;;;;3.47;2.77;;;10.70;99.90;;;;;;10349911;28;20255;-84
2023/03/08 11:53:49;;;;;;;3.90;1.80;;;10.50;99.90;;;;;;10366583;28;20236;-84
2023/03/08 11:58:55;;;;;;;4.07;2.20;;;11.60;99.90;;;;;;10357404;28;20248;-83
2023/03/08 12:04:04;;;;;;;3.40;2.27;;;11.30;99.90;;;;;;10367625;28;20248;-83
2023/03/08 12:09:36;;;;;;;5.40;3.97;;;11.50;99.90;;;;;;10349465;28;20958;-84
2023/03/08 12:14:57;;;;;;;3.47;1.70;;;10.80;80.00;;;;;;10349172;28;20237;-84
2023/03/08 12:20:01;;;;;;;9.50;6.30;;;10.80;99.90;;;;;;10349236;28;20323;-84
2023/03/08 12:25:18;;;;;;;9.87;3.93;;;9.30;54.90;;;;;;10366567;28;20276;-84
2023/03/08 12:31:00;;;;;;;6.57;5.57;;;8.70;97.50;;;;;;10365749;28;20263;-84
2023/03/08 12:36:05;;;;;;;3.60;2.70;;;8.40;80.50;;;;;;10347589;28;20694;-84
2023/03/08 12:41:29;;;;;;;12.23;6.87;;;9.00;99.90;;;;;;10326592;28;20299;-84
2023/03/08 12:46:49;;;;;;;14.67;9.10;;;8.70;78.30;;;;;;10363936;28;20267;-85
2023/03/08 12:52:06;;;;;;;12.90;8.23;;;8.20;76.70;;;;;;10350359;28;20294;-84
2023/03/08 12:57:20;;;;;;;13.77;8.47;;;7.60;77.20;;;;;;10349488;28;20274;-84
2023/03/08 13:02:29;;;;;;;8.63;5.73;;;7.30;80.00;;;;;;10356774;28;20709;-84
2023/03/08 13:07:38;;;;;;;12.40;8.23;;;7.80;99.90;;;;;;10373476;28;20268;-84
2023/03/08 13:13:16;;;;;;;16.53;10.10;;;7.50;92.50;;;;;;10357254;28;20669;-84
2023/03/08 13:18:40;;;;;;;16.07;9.23;;;6.80;92.90;;;;;;10355997;28;20248;-84
2023/03/08 13:23:52;;;;;;;13.87;9.13;;;6.40;92.20;;;;;;10373782;28;20745;-84
2023/03/08 13:28:55;;;;;;;14.30;9.57;;;7.40;99.90;;;;;;10373605;28;20268;-84
2023/03/08 13:33:59;;;;;;;20.47;13.03;;;7.10;93.90;;;;;;10373522;28;20282;-84
2023/03/08 13:39:06;;;;;;;7.63;4.93;;;6.70;91.40;;;;;;10373062;28;20298;-84
2023/03/08 13:44:21;;;;;;;20.87;10.70;;;6.50;99.90;;;;;;10372850;28;20240;-84
2023/03/08 13:49:27;;;;;;;10.57;7.93;;;7.00;99.00;;;;;;10371973;28;20263;-84
2023/03/08 13:54:36;;;;;;;15.00;9.67;;;7.30;99.90;;;;;;10354374;28;20260;-85
2023/03/08 13:59:50;;;;;;;6.87;5.83;;;7.10;91.70;;;;;;10354599;28;20691;-85
2023/03/08 14:04:53;;;;;;;10.43;6.87;;;7.70;98.30;;;;;;10371138;28;20691;-84
2023/03/08 14:09:57;;;;;;;9.20;5.87;;;7.10;81.30;;;;;;10352242;28;20276;-85
2023/03/08 14:15:03;;;;;;;13.10;8.33;;;7.60;99.90;;;;;;10370831;28;20244;-84
2023/03/08 14:20:21;;;;;;;7.83;5.67;;;7.10;72.40;;;;;;10371140;28;20681;-84
2023/03/08 14:25:24;;;;;;;15.23;9.20;;;7.00;96.40;;;;;;10351750;28;20286;-84
2023/03/08 14:30:29;;;;;;;6.57;4.83;;;6.50;90.00;;;;;;10369686;28;20294;-84
2023/03/08 14:35:36;;;;;;;10.97;8.60;;;7.00;99.90;;;;;;10368683;28;20273;-84
2023/03/08 14:40:47;;;;;;;16.93;9.23;;;6.50;82.30;;;;;;10369619;28;20240;-84
2023/03/08 14:46:05;;;;;;;15.60;9.47;;;6.10;83.40;;;;;;10368999;28;20302;-84
2023/03/08 14:51:18;;;;;;;15.37;8.57;;;5.70;87.70;;;;;;10350392;28;20313;-85
2023/03/08 14:56:21;;;;;;;11.37;8.23;;;5.40;87.00;;;;;;10368284;28;20303;-85
2023/03/08 15:01:32;;;;;;;13.80;8.77;;;5.20;86.40;;;;;;10386190;28;20682;-84
2023/03/08 15:06:38;;;;;;;11.20;8.57;;;5.10;89.70;;;;;;10391618;28;20694;-84
2023/03/08 15:11:42;;;;;;;16.73;10.07;;;4.90;91.30;;;;;;10379335;28;20712;-85
2023/03/08 15:16:45;;;;;;;13.30;8.57;;;4.90;92.90;;;;;;10366794;28;20318;-84
2023/03/08 15:21:48;;;;;;;15.07;9.97;;;5.00;99.90;;;;;;10367833;28;20239;-84
2023/03/08 15:26:51;;;;;;;8.67;5.70;;;5.40;99.90;;;;;;10367758;28;20255;-85
2023/03/08 15:31:54;;;;;;;13.70;10.10;;;5.90;99.90;;;;;;10367870;28;20644;-85
2023/03/08 15:36:57;;;;;;;6.27;4.40;;;6.30;99.90;;;;;;10350934;28;20244;-85
2023/03/08 15:41:59;;;;;;;16.87;11.20;;;5.60;99.90;;;;;;10367351;28;20321;-86
2023/03/08 15:47:02;;;;;;;16.70;10.27;;;6.10;98.70;;;;;;10350128;28;20330;-85
2023/03/08 15:52:05;;;;;;;19.40;11.17;;;5.10;99.90;;;;;;10367227;28;20263;-85
2023/03/08 15:57:10;;;;;;;22.27;14.30;;;4.50;99.90;;;;;;10349715;28;20290;-85
2023/03/08 16:02:18;;;;;;;21.73;13.83;;;4.30;99.90;;;;;;10349667;28;20236;-86
2023/03/08 16:07:21;;;;;;;23.63;14.20;;;4.20;99.90;;;;;;10366956;28;20310;-86
2023/03/08 16:12:23;;;;;;;16.23;10.13;;;4.00;99.90;;;;;;10367214;28;20299;-85
2023/03/08 16:17:29;;;;;;;23.43;13.63;;;4.30;99.90;;;;;;10367014;28;20266;-86
2023/03/08 16:22:32;;;;;;;24.10;15.20;;;4.80;99.90;;;;;;10366420;28;20236;-86
2023/03/08 16:27:35;;;;;;;20.97;15.90;;;4.20;99.90;;;;;;10367093;28;20255;-86
2023/03/08 16:32:40;;;;;;;24.40;16.00;;;4.00;99.90;;;;;;10348343;28;20245;-86
2023/03/08 16:37:42;;;;;;;25.50;14.90;;;3.60;99.90;;;;;;10348672;28;20240;-86
2023/03/08 16:42:47;;;;;;;25.30;15.30;;;3.20;99.90;;;;;;10349189;28;20311;-86
2023/03/08 16:47:50;;;;;;;25.47;15.37;;;3.20;99.90;;;;;;10366666;28;20255;-86
2023/03/08 16:52:54;;;;;;;27.63;18.03;;;3.10;99.90;;;;;;10348782;28;20236;-86
2023/03/08 16:57:56;;;;;;;41.50;22.47;;;2.90;99.90;;;;;;10365581;28;20253;-85
2023/03/08 17:02:59;;;;;;;32.50;20.27;;;2.80;99.90;;;;;;10364848;28;20283;-85
2023/03/08 17:08:01;;;;;;;36.17;20.93;;;2.90;99.90;;;;;;10348729;28;20265;-85
2023/03/08 17:13:04;;;;;;;46.57;23.63;;;2.80;99.90;;;;;;10364980;28;20292;-85
2023/03/08 17:18:07;;;;;;;46.03;25.97;;;3.00;99.90;;;;;;10348581;28;20240;-85
2023/03/08 17:23:11;;;;;;;40.17;22.70;;;2.60;99.90;;;;;;10365525;28;20321;-85
2023/03/08 17:28:14;;;;;;;39.27;20.33;;;2.50;99.90;;;;;;10348137;28;20720;-85
2023/03/08 17:33:17;;;;;;;30.97;16.80;;;2.60;99.90;;;;;;10365861;28;20236;-85
2023/03/08 17:38:20;;;;;;;35.60;17.97;;;2.80;99.90;;;;;;10347703;28;20311;-85
2023/03/08 17:43:22;;;;;;;35.70;22.43;;;2.90;99.90;;;;;;10367237;28;20232;-85
2023/03/08 17:48:25;;;;;;;30.40;19.90;;;2.70;99.90;;;;;;10372426;28;20261;-85
2023/03/08 17:53:28;;;;;;;29.87;19.43;;;2.40;99.90;;;;;;10354951;28;20320;-85
2023/03/08 17:58:30;;;;;;;33.60;21.20;;;2.20;99.90;;;;;;10372232;28;20689;-85
2023/03/08 18:03:33;;;;;;;48.13;29.60;;;2.10;99.90;;;;;;10371886;28;20308;-84
2023/03/08 18:08:36;;;;;;;40.50;26.13;;;2.00;99.90;;;;;;10371224;28;20263;-85
2023/03/08 18:13:38;;;;;;;29.93;20.23;;;1.90;99.90;;;;;;10370593;28;20290;-85
2023/03/08 18:18:44;;;;;;;29.83;19.70;;;1.90;99.90;;;;;;10371076;28;20244;-85
2023/03/08 18:23:47;;;;;;;31.37;20.03;;;2.10;99.90;;;;;;10371169;28;20271;-85
2023/03/08 18:28:50;;;;;;;23.17;16.63;;;2.30;99.90;;;;;;10370973;28;20259;-84
2023/03/08 18:33:53;;;;;;;22.30;15.87;;;2.70;99.90;;;;;;10370777;28;21040;-85
2023/03/08 18:38:56;;;;;;;29.87;18.50;;;3.30;99.90;;;;;;10369763;28;20248;-85
2023/03/08 18:44:00;;;;;;;31.30;19.20;;;3.90;99.90;;;;;;10351912;28;20286;-85
2023/03/08 18:49:08;;;;;;;39.43;21.47;;;3.50;99.90;;;;;;10350475;28;20274;-85
2023/03/08 18:54:22;;;;;;;19.47;12.70;;;3.20;99.90;;;;;;10341187;28;20233;-85
2023/03/08 18:59:25;;;;;;;18.17;12.93;;;3.60;99.90;;;;;;10311915;28;20625;-85
2023/03/08 19:04:27;;;;;;;11.83;8.53;;;3.40;99.90;;;;;;10328696;28;20248;-85
2023/03/08 19:09:30;;;;;;;25.37;16.20;;;3.60;99.90;;;;;;10364893;28;20265;-85
2023/03/08 19:14:32;;;;;;;32.17;20.43;;;3.40;99.90;;;;;;10369342;28;20243;-84
2023/03/08 19:19:36;;;;;;;29.53;18.57;;;2.70;99.90;;;;;;10368720;28;20787;-85
2023/03/08 19:24:38;;;;;;;33.20;19.47;;;2.80;99.90;;;;;;10362619;28;20244;-85
2023/03/08 19:29:41;;;;;;;33.57;20.03;;;2.80;99.90;;;;;;10382101;28;20722;-85
2023/03/08 19:34:44;;;;;;;38.87;22.97;;;2.60;99.90;;;;;;10349941;28;20649;-85
2023/03/08 19:39:46;;;;;;;111.37;50.53;;;2.70;99.90;;;;;;10373046;28;20283;-85
2023/03/08 19:44:51;;;;;;;121.50;53.17;;;3.20;99.90;;;;;;10378091;28;20247;-86
2023/03/08 19:49:53;;;;;;;25.47;14.43;;;3.40;99.90;;;;;;10349778;28;20287;-85
2023/03/08 19:54:57;;;;;;;38.37;20.03;;;3.70;99.90;;;;;;10383957;28;20236;-85
2023/03/08 20:00:00;;;;;;;33.97;17.90;;;3.80;99.90;;;;;;10367165;28;20363;-85
2023/03/08 20:05:13;;;;;;;28.03;17.30;;;3.60;99.90;;;;;;10369958;28;20698;-85
2023/03/08 20:10:16;;;;;;;19.00;13.33;;;3.70;99.90;;;;;;10369925;28;20283;-85
2023/03/08 20:15:19;;;;;;;27.17;17.60;;;3.90;99.90;;;;;;10366123;28;20334;-85
2023/03/08 20:20:22;;;;;;;27.70;16.63;;;3.30;99.90;;;;;;10349055;28;20271;-86
2023/03/08 20:25:25;;;;;;;26.87;16.47;;;3.10;99.90;;;;;;10364431;28;20267;-85
2023/03/08 20:30:28;;;;;;;25.43;15.57;;;3.70;99.90;;;;;;10366060;28;20326;-85
2023/03/08 20:35:30;;;;;;;30.67;20.30;;;4.20;99.90;;;;;;10347040;28;20238;-86
2023/03/08 20:40:33;;;;;;;37.03;22.73;;;3.80;99.90;;;;;;10347097;28;20315;-85
2023/03/08 20:45:39;;;;;;;30.40;17.83;;;3.40;99.90;;;;;;10363891;28;20247;-85
2023/03/08 20:50:41;;;;;;;40.03;25.50;;;3.10;99.90;;;;;;10346785;28;20337;-85
2023/03/08 20:55:44;;;;;;;25.80;18.87;;;2.90;99.90;;;;;;10339560;28;20240;-85
2023/03/08 21:00:46;;;;;;;48.10;27.80;;;3.00;99.90;;;;;;10376054;28;20236;-85
2023/03/08 21:05:49;;;;;;;42.93;26.90;;;3.00;99.90;;;;;;10365725;28;20247;-85
2023/03/08 21:10:55;;;;;;;39.17;22.70;;;3.60;99.90;;;;;;10354262;28;20248;-85
2023/03/08 21:16:06;;;;;;;34.80;20.93;;;3.70;99.90;;;;;;10365766;28;20315;-84
2023/03/08 21:21:22;;;;;;;37.27;23.27;;;4.10;99.90;;;;;;10372337;28;20241;-84
2023/03/08 21:26:27;;;;;;;42.50;25.33;;;4.20;99.90;;;;;;10355529;28;20311;-84
2023/03/08 21:31:31;;;;;;;43.87;27.70;;;3.30;99.90;;;;;;10361919;28;20697;-85
2023/03/08 21:36:36;;;;;;;43.47;26.33;;;3.00;99.90;;;;;;10371498;28;20239;-85
2023/03/08 21:41:41;;;;;;;43.07;27.23;;;2.60;99.90;;;;;;10375353;28;20240;-85
2023/03/08 21:46:45;;;;;;;46.20;26.10;;;2.50;99.90;;;;;;10355063;28;20262;-85
2023/03/08 21:51:48;;;;;;;46.67;27.93;;;2.60;99.90;;;;;;10368630;28;20737;-85
2023/03/08 21:56:51;;;;;;;35.53;20.43;;;2.90;99.90;;;;;;10354885;28;20240;-84
2023/03/08 22:01:57;;;;;;;57.50;33.57;;;2.60;99.90;;;;;;10371889;28;20240;-85
2023/03/08 22:06:59;;;;;;;42.90;25.40;;;3.00;99.90;;;;;;10353954;28;20248;-84
2023/03/08 22:12:03;;;;;;;60.70;32.97;;;3.20;99.90;;;;;;10353852;28;20310;-84
2023/03/08 22:17:06;;;;;;;46.33;25.60;;;2.90;99.90;;;;;;10371466;28;20304;-85
2023/03/08 22:22:10;;;;;;;27.67;18.00;;;3.10;99.90;;;;;;10355182;28;20258;-84
2023/03/08 22:27:13;;;;;;;23.87;15.47;;;3.80;99.90;;;;;;10363919;28;20862;-84
2023/03/08 22:32:15;;;;;;;34.47;21.50;;;3.80;99.90;;;;;;10338577;28;20622;-84
2023/03/08 22:37:18;;;;;;;28.10;17.03;;;3.60;99.90;;;;;;10370724;28;20688;-83
2023/03/08 22:42:22;;;;;;;19.87;13.50;;;3.60;99.90;;;;;;10370208;28;20306;-84
2023/03/08 22:47:25;;;;;;;19.00;12.43;;;3.60;99.90;;;;;;10370329;28;20267;-85
2023/03/08 22:52:27;;;;;;;18.70;12.07;;;4.00;99.90;;;;;;10370070;28;20260;-85
2023/03/08 22:57:30;;;;;;;31.93;19.37;;;3.80;99.90;;;;;;10352665;28;20282;-85
2023/03/08 23:02:33;;;;;;;29.33;17.87;;;3.50;99.90;;;;;;10368920;28;20247;-85
2023/03/08 23:07:36;;;;;;;25.07;16.03;;;3.30;99.90;;;;;;10369426;28;20302;-85
2023/03/08 23:12:39;;;;;;;26.80;15.97;;;3.30;99.90;;;;;;10369379;28;20721;-85
2023/03/08 23:17:42;;;;;;;29.80;17.97;;;3.70;99.90;;;;;;10369296;28;20244;-85
2023/03/08 23:22:46;;;;;;;17.93;11.57;;;3.50;99.90;;;;;;10369177;28;20259;-86
2023/03/08 23:27:48;;;;;;;17.13;11.60;;;3.20;99.90;;;;;;10368442;28;20272;-85
2023/03/08 23:32:51;;;;;;;17.27;10.77;;;3.70;99.90;;;;;;10351421;28;20271;-85
2023/03/08 23:37:53;;;;;;;30.23;19.53;;;3.90;99.90;;;;;;10368107;28;20247;-85
2023/03/08 23:42:56;;;;;;;21.33;13.37;;;3.40;99.90;;;;;;10350061;28;20280;-85
2023/03/08 23:47:58;;;;;;;36.33;21.83;;;3.70;99.90;;;;;;10368258;28;20244;-85
2023/03/08 23:53:05;;;;;;;29.87;16.17;;;3.30;99.90;;;;;;10367929;28;20264;-86
2023/03/08 23:58:08;;;;;;;16.53;11.37;;;3.60;99.90;;;;;;10367334;28;20294;-85
